Overview Statistics Trail Chart Weather Telemetry Raw packets
 

This is the latest recevied weather packets stored in our database for station/object Dunnningn. If no packets are shown the sender has not sent any weather packets the latest 10 day(s).

<< 16 17 18 19 >>
Time Temp. Humidity Pressure Rain* Wind** Luminosity Snow
1787823130 28.33° C 45% 1013.1 hPa 0 mm - - -
1787821330 26.67° C 51% 1013.2 hPa 0 mm - - -
1787819530 24.44° C 67% 1013.3 hPa 0 mm - - -
1787817730 22.78° C 69% 1013.4 hPa 0 mm - - -
1787815930 20.56° C 79% 1013.4 hPa 0 mm - - -
1787814130 17.22° C 88% 1013.4 hPa 0 mm - - -
1787812330 15.56° C 90% 1013.5 hPa 0 mm - - -
1787810530 14.44° C 91% 1013.2 hPa 0 mm - - -
1787808730 13.89° C 91% 1012.9 hPa 0 mm - - -
1787806930 13.33° C 90% 1012.9 hPa 0 mm - - -
1787805129 13.89° C 90% 1012.8 hPa 0 mm - - -
1787803330 13.89° C 90% 1012.8 hPa 0 mm - - -
1787801529 13.89° C 90% 1012.9 hPa 0 mm - - -
1787799730 13.89° C 88% 1013.1 hPa 0 mm - - -
1787797929 14.44° C 88% 1012.9 hPa 0 mm - - -
1787796130 14.44° C 88% 1013.2 hPa 0 mm - - -
1787794330 15° C 89% 1013.4 hPa 0 mm - - -
1787792530 15° C 87% 1013.4 hPa 0 mm - - -
1787790731 15.56° C 86% 1013.4 hPa 0 mm - - -
1787788931 15.56° C 85% 1013.5 hPa 0 mm - - -
1787787131 16.11° C 84% 1013.8 hPa 0 mm - - -
1787785331 16.67° C 84% 1013.9 hPa 0 mm - - -
1787783531 17.22° C 81% 1013.9 hPa 0 mm - - -

* Rain since midnight (hover to see other rain measurements)
** Current wind speed in m/s (hover to see current wind gust speed)